Time,TemperatureF,DewpointF,PressureIn,WindDirection,WindDirectionDegrees,WindSpeedMPH,WindSpeedGustMPH,Humidity,HourlyPrecipIn,Conditions,Clouds,dailyrainin,SoftwareType,DateUTC
2013-02-12 00:00:00,39.9,25.9,30.13,WNW,294,3.5,3.5,57,0.00,CLR,,0.01,WeatherDisplay:10.37,2013-02-12 05:00:00,
2013-02-12 00:01:00,39.9,25.9,30.13,WNW,294,2.0,2.0,57,0.00,RA,,0.00,WeatherDisplay:10.37,2013-02-12 05:01:00,
2013-02-12 00:02:00,39.9,25.9,30.13,WNW,295,4.0,4.0,57,0.00,RA,,0.00,WeatherDisplay:10.37,2013-02-12 05:02:00,
2013-02-12 00:07:00,39.8,25.8,30.13,WNW,296,4.0,4.0,57,0.00,RA,,0.00,WeatherDisplay:10.37,2013-02-12 05:07:00,
2013-02-12 00:08:00,39.8,25.8,30.13,WNW,296,4.0,4.0,57,0.00,RA,,0.00,WeatherDisplay:10.37,2013-02-12 05:08:00,
2013-02-12 00:13:00,39.8,25.8,30.13,WNW,292,5.0,5.0,57,0.00,CLR,,0.00,WeatherDisplay:10.37,2013-02-12 05:13:00,
2013-02-12 00:18:00,39.7,25.7,30.13,WNW,291,4.0,4.0,57,0.00,CLR,,0.00,WeatherDisplay:10.37,2013-02-12 05:18:00,
2013-02-12 00:23:00,39.6,26.0,30.13,WNW,291,3.0,3.0,58,0.00,CLR,,0.00,WeatherDisplay:10.37,2013-02-12 05:23:00,
2013-02-12 00:28:00,39.5,25.9,30.13,WNW,290,2.3,2.3,58,0.00,CLR,,0.00,WeatherDisplay:10.37,2013-02-12 05:28:00,
2013-02-12 00:33:00,39.3,25.7,30.13,WNW,291,2.3,2.3,58,0.00,CLR,,0.00,WeatherDisplay:10.37,2013-02-12 05:33:00,
2013-02-12 00:38:00,39.1,26.0,30.13,WNW,291,3.5,3.5,59,0.00,CLR,,0.00,WeatherDisplay:10.37,2013-02-12 05:38:00,
2013-02-12 00:43:00,38.8,25.7,30.13,WNW,291,3.0,3.0,59,0.00,CLR,,0.00,WeatherDisplay:10.37,2013-02-12 05:43:00,
2013-02-12 00:48:00,38.6,25.5,30.13,WNW,290,3.5,3.5,59,0.00,CLR,,0.00,WeatherDisplay:10.37,2013-02-12 05:48:00,
2013-02-12 00:53:00,38.2,25.5,30.13,WNW,291,2.3,2.3,60,0.00,CLR,,0.00,WeatherDisplay:10.37,2013-02-12 05:53:00,
2013-02-12 00:58:00,37.8,25.1,30.13,WNW,291,2.3,2.3,60,0.00,CLR,,0.00,WeatherDisplay:10.37,2013-02-12 05:58:00,
2013-02-12 01:03:00,37.5,25.3,30.13,WNW,290,3.5,3.5,61,0.00,CLR,,0.00,WeatherDisplay:10.37,2013-02-12 06:03:00,
2013-02-12 01:08:00,37.3,25.1,30.13,WNW,291,3.5,3.5,61,0.00,CLR,,0.00,WeatherDisplay:10.37,2013-02-12 06:08:00,
2013-02-12 01:13:00,37.0,24.8,30.13,WNW,290,2.3,2.3,61,0.00,CLR,,0.00,WeatherDisplay:10.37,2013-02-12 06:13:00,
2013-02-12 01:18:00,36.8,24.6,30.13,WNW,290,2.3,2.3,61,0.00,CLR,,0.00,WeatherDisplay:10.37,2013-02-12 06:18:00,
2013-02-12 01:23:00,36.5,24.7,30.13,WNW,290,2.3,2.3,62,0.00,CLR,,0.00,WeatherDisplay:10.37,2013-02-12 06:23:00,
2013-02-12 01:28:00,36.3,24.5,30.13,WNW,291,1.0,0.0,62,0.00,CLR,,0.00,WeatherDisplay:10.37,2013-02-12 06:28:00,
2013-02-12 01:33:00,36.2,24.4,30.13,WNW,291,2.3,2.3,62,0.00,CLR,,0.00,WeatherDisplay:10.37,2013-02-12 06:33:00,
2013-02-12 01:38:00,36.1,24.3,30.13,WNW,291,2.3,2.3,62,0.00,CLR,,0.00,WeatherDisplay:10.37,2013-02-12 06:38:00,
2013-02-12 01:43:00,36.0,24.2,30.13,WNW,291,3.5,3.5,62,0.00,CLR,,0.00,WeatherDisplay:10.37,2013-02-12 06:43:00,
2013-02-12 01:48:00,35.9,24.5,30.13,WNW,290,3.5,3.5,63,0.00,CLR,,0.00,WeatherDisplay:10.37,2013-02-12 06:48:00,
2013-02-12 01:53:00,35.8,24.4,30.13,WNW,291,3.5,3.5,63,0.00,CLR,,0.00,WeatherDisplay:10.37,2013-02-12 06:53:00,
2013-02-12 01:58:00,35.7,24.3,30.13,WNW,290,0.0,0.0,63,0.00,CLR,,0.00,WeatherDisplay:10.37,2013-02-12 06:58:00,
2013-02-12 02:03:00,35.5,24.1,30.13,WNW,290,3.5,3.5,63,0.00,CLR,,0.00,WeatherDisplay:10.37,2013-02-12 07:03:00,
2013-02-12 02:08:00,35.5,24.5,30.14,WNW,291,3.5,3.5,64,0.00,CLR,,0.00,WeatherDisplay:10.37,2013-02-12 07:08:00,
2013-02-12 02:13:00,35.5,24.5,30.14,WNW,291,3.5,3.5,64,0.00,CLR,,0.00,WeatherDisplay:10.37,2013-02-12 07:13:00,
2013-02-12 02:18:00,35.4,24.4,30.14,WNW,291,1.0,0.0,64,0.00,CLR,,0.00,WeatherDisplay:10.37,2013-02-12 07:18:00,
2013-02-12 02:23:00,35.2,24.2,30.14,WNW,291,3.5,3.5,64,0.00,CLR,,0.00,WeatherDisplay:10.37,2013-02-12 07:23:00,
2013-02-12 02:28:00,35.2,24.2,30.14,WNW,290,2.3,2.3,64,0.00,CLR,,0.00,WeatherDisplay:10.37,2013-02-12 07:28:00,
2013-02-12 02:33:00,35.1,24.5,30.14,WNW,291,2.3,2.3,65,0.00,CLR,,0.00,WeatherDisplay:10.37,2013-02-12 07:33:00,
2013-02-12 02:38:00,34.9,24.3,30.14,WNW,290,1.0,0.0,65,0.00,CLR,,0.00,WeatherDisplay:10.37,2013-02-12 07:38:00,
2013-02-12 02:43:00,34.7,24.1,30.14,WNW,290,2.3,2.3,65,0.00,CLR,,0.00,WeatherDisplay:10.37,2013-02-12 07:43:00,
2013-02-12 02:48:00,34.6,24.0,30.15,WNW,291,2.0,2.0,65,0.00,CLR,,0.00,WeatherDisplay:10.37,2013-02-12 07:48:00,
2013-02-12 02:53:00,34.7,24.1,30.15,WNW,291,3.5,3.5,65,0.00,CLR,,0.00,WeatherDisplay:10.37,2013-02-12 07:53:00,
2013-02-12 02:58:00,34.7,24.1,30.15,WNW,290,2.3,2.3,65,0.00,CLR,,0.00,WeatherDisplay:10.37,2013-02-12 07:58:00,
2013-02-12 03:03:00,34.7,24.1,30.14,WNW,291,2.3,2.3,65,0.00,CLR,,0.00,WeatherDisplay:10.37,2013-02-12 08:03:00,
2013-02-12 03:08:00,34.7,24.1,30.14,WNW,291,3.5,3.5,65,0.00,CLR,,0.00,WeatherDisplay:10.37,2013-02-12 08:08:00,
2013-02-12 03:13:00,34.7,24.1,30.14,WNW,290,4.0,4.0,65,0.00,CLR,,0.00,WeatherDisplay:10.37,2013-02-12 08:13:00,
2013-02-12 03:18:00,34.8,24.2,30.14,WNW,291,2.3,2.3,65,0.00,CLR,,0.00,WeatherDisplay:10.37,2013-02-12 08:18:00,
2013-02-12 03:23:00,34.8,24.2,30.14,WNW,290,3.5,3.5,65,0.00,CLR,,0.00,WeatherDisplay:10.37,2013-02-12 08:23:00,
2013-02-12 03:28:00,35.0,24.4,30.14,WNW,290,3.5,3.5,65,0.00,CLR,,0.00,WeatherDisplay:10.37,2013-02-12 08:28:00,
2013-02-12 03:33:00,35.1,24.5,30.14,WNW,291,3.5,3.5,65,0.00,CLR,,0.00,WeatherDisplay:10.37,2013-02-12 08:33:00,
2013-02-12 03:38:00,35.2,24.2,30.14,WNW,290,3.5,3.5,64,0.00,CLR,,0.00,WeatherDisplay:10.37,2013-02-12 08:38:00,
2013-02-12 03:43:00,35.4,24.4,30.14,WNW,290,3.5,3.5,64,0.00,CLR,,0.00,WeatherDisplay:10.37,2013-02-12 08:43:00,
2013-02-12 03:48:00,35.3,24.3,30.14,WNW,290,4.0,4.0,64,0.00,CLR,,0.00,WeatherDisplay:10.37,2013-02-12 08:48:00,
2013-02-12 03:53:00,35.3,24.3,30.14,WNW,290,3.5,3.5,64,0.00,CLR,,0.00,WeatherDisplay:10.37,2013-02-12 08:53:00,
2013-02-12 03:58:00,35.2,24.2,30.14,WNW,290,2.3,2.3,64,0.00,CLR,,0.00,WeatherDisplay:10.37,2013-02-12 08:58:00,
2013-02-12 04:03:00,35.3,24.3,30.14,WNW,291,4.0,4.0,64,0.00,CLR,,0.00,WeatherDisplay:10.37,2013-02-12 09:03:00,
2013-02-12 04:08:00,35.2,24.2,30.14,WNW,291,3.5,3.5,64,0.00,CLR,,0.00,WeatherDisplay:10.37,2013-02-12 09:08:00,
2013-02-12 04:13:00,35.0,24.4,30.15,WNW,291,2.0,2.0,65,0.00,CLR,,0.00,WeatherDisplay:10.37,2013-02-12 09:13:00,
2013-02-12 04:18:00,34.8,24.2,30.15,WNW,291,2.3,0.0,65,0.00,CLR,,0.00,WeatherDisplay:10.37,2013-02-12 09:18:00,
2013-02-12 04:23:00,34.6,24.0,30.15,WNW,291,0.0,0.0,65,0.00,CLR,,0.00,WeatherDisplay:10.37,2013-02-12 09:23:00,
2013-02-12 04:28:00,34.4,23.8,30.15,WNW,291,0.0,0.0,65,0.00,CLR,,0.00,WeatherDisplay:10.37,2013-02-12 09:28:00,
2013-02-12 04:33:00,34.4,23.8,30.14,WNW,291,0.0,0.0,65,0.00,CLR,,0.00,WeatherDisplay:10.37,2013-02-12 09:33:00,
2013-02-12 04:38:00,34.2,24.0,30.15,WNW,291,1.1,0.0,66,0.00,CLR,,0.00,WeatherDisplay:10.37,2013-02-12 09:38:00,
2013-02-12 04:43:00,34.0,23.8,30.15,WNW,291,0.0,0.0,66,0.00,CLR,,0.00,WeatherDisplay:10.37,2013-02-12 09:43:00,
2013-02-12 04:48:00,33.9,23.7,30.15,WNW,291,0.0,0.0,66,0.00,CLR,,0.00,WeatherDisplay:10.37,2013-02-12 09:48:00,
2013-02-12 04:53:00,33.8,24.0,30.15,WNW,291,0.0,0.0,67,0.00,CLR,,0.00,WeatherDisplay:10.37,2013-02-12 09:53:00,
2013-02-12 04:58:00,33.7,23.9,30.16,WNW,291,0.0,0.0,67,0.00,CLR,,0.00,WeatherDisplay:10.37,2013-02-12 09:58:00,
2013-02-12 05:03:00,33.5,23.7,30.16,WNW,291,1.1,1.1,67,0.00,CLR,,0.00,WeatherDisplay:10.37,2013-02-12 10:03:00,
2013-02-12 05:08:00,33.3,23.5,30.17,WNW,291,2.3,2.3,67,0.00,CLR,,0.00,WeatherDisplay:10.37,2013-02-12 10:08:00,
2013-02-12 05:13:00,33.3,23.9,30.17,WNW,291,3.5,3.5,68,0.00,CLR,,0.00,WeatherDisplay:10.37,2013-02-12 10:13:00,
2013-02-12 05:18:00,33.2,23.8,30.17,WNW,291,3.5,0.0,68,0.00,CLR,,0.00,WeatherDisplay:10.37,2013-02-12 10:18:00,
2013-02-12 05:23:00,33.0,23.6,30.17,WNW,291,0.0,0.0,68,0.00,CLR,,0.00,WeatherDisplay:10.37,2013-02-12 10:23:00,
2013-02-12 05:28:00,32.8,23.7,30.17,WNW,291,1.1,1.1,69,0.00,CLR,,0.00,WeatherDisplay:10.37,2013-02-12 10:28:00,
2013-02-12 05:33:00,32.7,23.6,30.17,WNW,291,2.3,2.3,69,0.00,CLR,,0.00,WeatherDisplay:10.37,2013-02-12 10:33:00,
2013-02-12 05:38:00,32.6,23.6,30.17,WNW,291,1.1,1.1,69,0.00,CLR,,0.00,WeatherDisplay:10.37,2013-02-12 10:38:00,
2013-02-12 05:43:00,32.6,23.6,30.17,WNW,291,2.3,2.3,69,0.00,CLR,,0.00,WeatherDisplay:10.37,2013-02-12 10:43:00,
2013-02-12 05:48:00,32.6,23.9,30.17,WNW,291,2.3,2.3,70,0.00,CLR,,0.00,WeatherDisplay:10.37,2013-02-12 10:48:00,
2013-02-12 05:53:00,32.7,24.0,30.17,WNW,291,1.1,1.1,70,0.00,CLR,,0.00,WeatherDisplay:10.37,2013-02-12 10:53:00,
2013-02-12 05:58:00,32.8,23.7,30.17,WNW,291,1.1,0.0,69,0.00,CLR,,0.00,WeatherDisplay:10.37,2013-02-12 10:58:00,
2013-02-12 06:03:00,32.9,23.8,30.17,WNW,291,2.3,2.3,69,0.00,CLR,,0.00,WeatherDisplay:10.37,2013-02-12 11:03:00,
2013-02-12 06:08:00,32.9,23.8,30.17,WNW,291,2.3,2.3,69,0.00,CLR,,0.00,WeatherDisplay:10.37,2013-02-12 11:08:00,
2013-02-12 06:13:00,32.8,23.7,30.18,WNW,291,0.0,0.0,69,0.00,CLR,,0.00,WeatherDisplay:10.37,2013-02-12 11:13:00,
2013-02-12 06:18:00,32.8,23.7,30.18,WNW,291,2.0,2.0,69,0.00,CLR,,0.00,WeatherDisplay:10.37,2013-02-12 11:18:00,
2013-02-12 06:23:00,32.6,23.6,30.18,WNW,291,1.1,1.1,69,0.00,CLR,,0.00,WeatherDisplay:10.37,2013-02-12 11:23:00,
2013-02-12 06:28:00,32.6,23.9,30.18,WNW,291,2.3,2.3,70,0.00,CLR,,0.00,WeatherDisplay:10.37,2013-02-12 11:28:00,
2013-02-12 06:33:00,32.5,23.8,30.18,WNW,291,2.3,2.3,70,0.00,CLR,,0.00,WeatherDisplay:10.37,2013-02-12 11:33:00,
2013-02-12 06:38:00,32.5,23.8,30.18,WNW,291,3.5,3.5,70,0.00,CLR,,0.00,WeatherDisplay:10.37,2013-02-12 11:38:00,
2013-02-12 06:43:00,32.4,23.7,30.18,WNW,291,2.3,2.3,70,0.00,CLR,,0.00,WeatherDisplay:10.37,2013-02-12 11:43:00,
2013-02-12 06:48:00,32.2,23.5,30.18,WNW,291,2.3,2.3,70,0.00,CLR,,0.00,WeatherDisplay:10.37,2013-02-12 11:48:00,
2013-02-12 06:53:00,32.0,23.7,30.18,WNW,291,2.3,2.3,71,0.00,CLR,,0.00,WeatherDisplay:10.37,2013-02-12 11:53:00,
2013-02-12 06:58:00,31.8,23.5,30.19,WNW,291,2.3,2.3,71,0.00,CLR,,0.00,WeatherDisplay:10.37,2013-02-12 11:58:00,
2013-02-12 07:03:00,31.7,23.4,30.19,WNW,291,2.3,2.3,71,0.00,CLR,,0.00,WeatherDisplay:10.37,2013-02-12 12:03:00,
2013-02-12 07:08:00,31.5,23.5,30.19,WNW,291,1.1,0.0,72,0.00,CLR,,0.00,WeatherDisplay:10.37,2013-02-12 12:08:00,
2013-02-12 07:13:00,31.3,23.3,30.19,WNW,291,0.0,0.0,72,0.00,CLR,,0.00,WeatherDisplay:10.37,2013-02-12 12:13:00,
2013-02-12 07:18:00,31.0,23.0,30.19,WNW,291,0.0,0.0,72,0.00,CLR,,0.00,WeatherDisplay:10.37,2013-02-12 12:18:00,
2013-02-12 07:23:00,31.0,23.4,30.19,WNW,291,1.1,1.1,73,0.00,CLR,,0.00,WeatherDisplay:10.37,2013-02-12 12:23:00,
2013-02-12 07:28:00,31.0,23.4,30.19,WNW,291,0.0,0.0,73,0.00,CLR,,0.00,WeatherDisplay:10.37,2013-02-12 12:28:00,
2013-02-12 07:33:00,30.9,23.3,30.19,WNW,291,0.0,0.0,73,0.00,CLR,,0.00,WeatherDisplay:10.37,2013-02-12 12:33:00,
2013-02-12 07:38:00,30.7,23.1,30.19,WNW,291,0.0,0.0,73,0.00,CLR,,0.00,WeatherDisplay:10.37,2013-02-12 12:38:00,
2013-02-12 07:43:00,30.7,23.4,30.19,WNW,291,1.0,0.0,74,0.00,CLR,,0.00,WeatherDisplay:10.37,2013-02-12 12:43:00,
2013-02-12 07:48:00,30.8,23.5,30.19,WNW,291,0.0,0.0,74,0.00,CLR,,0.00,WeatherDisplay:10.37,2013-02-12 12:48:00,
2013-02-12 07:53:00,30.7,23.4,30.19,WNW,291,0.0,0.0,74,0.00,CLR,,0.00,WeatherDisplay:10.37,2013-02-12 12:53:00,
2013-02-12 07:58:00,30.9,23.9,30.19,WNW,291,0.0,0.0,75,0.00,CLR,,0.00,WeatherDisplay:10.37,2013-02-12 12:58:00,
2013-02-12 08:03:00,31.1,23.8,30.19,WNW,291,0.0,0.0,74,0.00,CLR,,0.00,WeatherDisplay:10.37,2013-02-12 13:03:00,
2013-02-12 08:08:00,31.3,24.0,30.19,WNW,291,1.1,0.0,74,0.00,CLR,,0.00,WeatherDisplay:10.37,2013-02-12 13:08:00,
2013-02-12 08:13:00,31.4,24.1,30.19,WNW,291,2.3,2.3,74,0.00,CLR,,0.00,WeatherDisplay:10.37,2013-02-12 13:13:00,
2013-02-12 08:18:00,31.5,24.2,30.19,WNW,291,2.3,2.3,74,0.00,CLR,,0.00,WeatherDisplay:10.37,2013-02-12 13:18:00,
2013-02-12 08:23:00,31.9,24.6,30.20,WNW,291,2.3,2.3,74,0.00,CLR,,0.00,WeatherDisplay:10.37,2013-02-12 13:23:00,
2013-02-12 08:28:00,32.2,24.5,30.20,WNW,291,1.0,0.0,73,0.00,CLR,,0.00,WeatherDisplay:10.37,2013-02-12 13:28:00,
2013-02-12 08:33:00,32.5,24.8,30.20,WNW,291,2.3,2.3,73,0.00,CLR,,0.00,WeatherDisplay:10.37,2013-02-12 13:33:00,
2013-02-12 08:38:00,32.8,24.8,30.20,WNW,291,1.1,1.1,72,0.00,CLR,,0.00,WeatherDisplay:10.37,2013-02-12 13:38:00,
2013-02-12 08:43:00,33.3,25.2,30.20,WNW,291,3.5,3.5,72,0.00,CLR,,0.00,WeatherDisplay:10.37,2013-02-12 13:43:00,
2013-02-12 08:48:00,33.7,25.3,30.20,WNW,291,2.3,2.3,71,0.00,CLR,,0.00,WeatherDisplay:10.37,2013-02-12 13:48:00,
2013-02-12 08:53:00,33.9,25.5,30.20,WNW,291,2.3,2.3,71,0.00,CLR,,0.00,WeatherDisplay:10.37,2013-02-12 13:53:00,
2013-02-12 08:58:00,34.2,25.8,30.20,WNW,291,2.3,2.3,71,0.00,CLR,,0.00,WeatherDisplay:10.37,2013-02-12 13:58:00,
2013-02-12 09:03:00,34.4,25.6,30.20,WNW,291,2.3,2.3,70,0.00,CLR,,0.00,WeatherDisplay:10.37,2013-02-12 14:03:00,
2013-02-12 09:09:00,34.8,26.0,30.20,WNW,291,2.3,2.3,70,0.00,CLR,,0.00,WeatherDisplay:10.37,2013-02-12 14:09:00,
2013-02-12 09:14:00,35.1,25.9,30.20,WNW,291,3.5,3.5,69,0.00,CLR,,0.00,WeatherDisplay:10.37,2013-02-12 14:14:00,
2013-02-12 09:19:00,35.4,26.6,30.20,WNW,291,3.5,3.5,70,0.00,CLR,,0.00,WeatherDisplay:10.37,2013-02-12 14:19:00,
2013-02-12 09:24:00,35.7,26.5,30.20,WNW,291,2.3,2.3,69,0.00,CLR,,0.00,WeatherDisplay:10.37,2013-02-12 14:24:00,
2013-02-12 09:29:00,36.1,26.9,30.20,WNW,290,3.5,3.5,69,0.00,CLR,,0.00,WeatherDisplay:10.37,2013-02-12 14:29:00,
2013-02-12 09:34:00,36.6,27.0,30.20,WNW,291,3.5,3.5,68,0.00,CLR,,0.00,WeatherDisplay:10.37,2013-02-12 14:34:00,
2013-02-12 09:39:00,37.1,27.2,30.20,WNW,291,5.0,5.0,67,0.00,CLR,,0.00,WeatherDisplay:10.37,2013-02-12 14:39:00,
2013-02-12 09:44:00,37.5,27.5,30.20,WNW,290,3.5,3.5,67,0.00,CLR,,0.00,WeatherDisplay:10.37,2013-02-12 14:44:00,
2013-02-12 09:49:00,37.7,27.0,30.20,WNW,292,0.0,0.0,65,0.00,CLR,,0.00,WeatherDisplay:10.37,2013-02-12 14:49:00,
2013-02-12 09:54:00,37.9,26.8,30.20,WNW,287,1.1,1.1,64,0.00,CLR,,0.00,WeatherDisplay:10.37,2013-02-12 14:54:00,
2013-02-12 09:59:00,38.4,27.3,30.19,WNW,287,3.5,0.0,64,0.00,CLR,,0.00,WeatherDisplay:10.37,2013-02-12 14:59:00,
2013-02-12 10:04:00,38.6,27.5,30.20,WNW,287,3.5,0.0,64,0.00,CLR,,0.00,WeatherDisplay:10.37,2013-02-12 15:04:00,
2013-02-12 10:09:00,38.7,27.2,30.19,WNW,287,3.0,3.0,63,0.00,CLR,,0.00,WeatherDisplay:10.37,2013-02-12 15:09:00,
2013-02-12 10:14:00,38.8,27.3,30.19,WNW,287,3.5,3.5,63,0.00,CLR,,0.00,WeatherDisplay:10.37,2013-02-12 15:14:00,
2013-02-12 10:19:00,38.9,27.4,30.19,WNW,287,2.3,2.3,63,0.00,CLR,,0.00,WeatherDisplay:10.37,2013-02-12 15:19:00,
2013-02-12 10:24:00,39.2,27.3,30.18,WNW,287,4.0,4.0,62,0.00,CLR,,0.00,WeatherDisplay:10.37,2013-02-12 15:24:00,
2013-02-12 10:29:00,39.4,27.5,30.18,WNW,287,0.0,0.0,62,0.00,CLR,,0.00,WeatherDisplay:10.37,2013-02-12 15:29:00,
2013-02-12 10:34:00,39.7,27.3,30.18,WNW,287,3.5,3.5,61,0.00,CLR,,0.00,WeatherDisplay:10.37,2013-02-12 15:34:00,
2013-02-12 10:39:00,39.7,26.9,30.18,WNW,286,0.0,0.0,60,0.00,CLR,,0.00,WeatherDisplay:10.37,2013-02-12 15:39:00,
2013-02-12 10:44:00,39.9,26.7,30.18,WNW,291,4.0,4.0,59,0.00,CLR,,0.00,WeatherDisplay:10.37,2013-02-12 15:44:00,
2013-02-12 10:49:00,40.2,27.4,30.18,WNW,291,3.5,3.5,60,0.00,CLR,,0.00,WeatherDisplay:10.37,2013-02-12 15:49:00,
2013-02-12 10:54:00,40.4,27.6,30.18,WNW,290,4.0,4.0,60,0.00,CLR,,0.00,WeatherDisplay:10.37,2013-02-12 15:54:00,
2013-02-12 10:59:00,40.6,27.0,30.19,WNW,289,4.0,4.0,58,0.00,CLR,,0.00,WeatherDisplay:10.37,2013-02-12 15:59:00,
2013-02-12 11:04:00,40.7,27.1,30.19,WNW,288,2.3,2.3,58,0.00,CLR,,0.00,WeatherDisplay:10.37,2013-02-12 16:04:00,
2013-02-12 11:09:00,40.9,27.2,30.18,WNW,289,1.1,0.0,58,0.00,CLR,,0.00,WeatherDisplay:10.37,2013-02-12 16:09:00,
2013-02-12 11:14:00,41.1,27.4,30.17,WNW,289,2.3,2.3,58,0.00,CLR,,0.00,WeatherDisplay:10.37,2013-02-12 16:14:00,
2013-02-12 11:19:00,41.6,27.9,30.16,WNW,289,3.5,3.5,58,0.00,CLR,,0.00,WeatherDisplay:10.37,2013-02-12 16:19:00,
2013-02-12 11:24:00,41.6,26.6,30.17,NW,314,3.5,3.5,55,0.00,CLR,,0.00,WeatherDisplay:10.37,2013-02-12 16:24:00,
2013-02-12 11:29:00,41.6,27.1,30.16,NW,316,3.5,3.5,56,0.00,CLR,,0.00,WeatherDisplay:10.37,2013-02-12 16:29:00,
2013-02-12 11:34:00,42.2,27.6,30.16,NW,315,4.0,4.0,56,0.00,CLR,,0.00,WeatherDisplay:10.37,2013-02-12 16:34:00,
2013-02-12 11:39:00,42.8,28.2,30.16,NW,315,1.1,1.1,56,0.00,CLR,,0.00,WeatherDisplay:10.37,2013-02-12 16:39:00,
2013-02-12 11:44:00,43.2,27.7,30.15,NW,316,2.0,2.0,54,0.00,CLR,,0.00,WeatherDisplay:10.37,2013-02-12 16:44:00,
2013-02-12 11:49:00,43.3,26.4,30.14,NW,320,5.0,5.0,51,0.00,CLR,,0.00,WeatherDisplay:10.37,2013-02-12 16:49:00,
2013-02-12 11:54:00,43.2,26.7,30.13,NW,321,2.0,2.0,52,0.00,CLR,,0.00,WeatherDisplay:10.37,2013-02-12 16:54:00,
2013-02-12 11:59:00,43.2,26.3,30.11,NW,322,3.5,3.5,51,0.00,CLR,,0.00,WeatherDisplay:10.37,2013-02-12 16:59:00,
2013-02-12 12:04:00,43.5,27.0,30.11,NW,322,0.0,0.0,52,0.00,CLR,,0.00,WeatherDisplay:10.37,2013-02-12 17:04:00,
2013-02-12 12:10:00,43.8,25.9,30.11,East,79,4.0,4.0,49,0.00,CLR,,0.00,WeatherDisplay:10.37,2013-02-12 17:10:00,
2013-02-12 12:15:00,44.1,26.6,30.11,ENE,60,7.0,7.0,50,0.00,CLR,,0.00,WeatherDisplay:10.37,2013-02-12 17:15:00,
2013-02-12 12:20:00,43.7,26.3,30.11,NE,56,3.5,3.5,50,0.00,CLR,,0.00,WeatherDisplay:10.37,2013-02-12 17:20:00,
2013-02-12 12:25:00,44.0,26.0,30.11,NE,56,2.0,8.0,49,0.00,CLR,,0.00,WeatherDisplay:10.37,2013-02-12 17:25:00,
2013-02-12 12:30:00,44.1,25.1,30.11,NE,56,3.5,3.5,47,0.00,CLR,,0.00,WeatherDisplay:10.37,2013-02-12 17:30:00,
2013-02-12 12:35:00,44.4,25.4,30.11,NE,56,6.0,6.0,47,0.00,CLR,,0.00,WeatherDisplay:10.37,2013-02-12 17:35:00,
2013-02-12 12:40:00,45.0,26.4,30.11,NE,54,1.0,6.0,48,0.00,CLR,,0.00,WeatherDisplay:10.37,2013-02-12 17:40:00,
2013-02-12 12:45:00,45.2,27.2,30.11,NE,53,4.0,4.0,49,0.00,CLR,,0.00,WeatherDisplay:10.37,2013-02-12 17:45:00,
2013-02-12 12:50:00,45.0,27.5,30.11,NE,47,3.5,3.5,50,0.00,CLR,,0.00,WeatherDisplay:10.37,2013-02-12 17:50:00,
2013-02-12 12:55:00,45.1,27.1,30.12,NE,48,1.0,6.0,49,0.00,CLR,,0.00,WeatherDisplay:10.37,2013-02-12 17:55:00,
2013-02-12 13:00:00,45.4,26.3,30.13,NE,36,5.0,5.0,47,0.00,CLR,,0.00,WeatherDisplay:10.37,2013-02-12 18:00:00,
2013-02-12 13:05:00,45.4,26.3,30.15,West,272,4.0,4.0,47,0.00,CLR,,0.00,WeatherDisplay:10.37,2013-02-12 18:05:00,
2013-02-12 13:10:00,46.0,27.4,30.15,West,272,3.5,3.5,48,0.00,CLR,,0.00,WeatherDisplay:10.37,2013-02-12 18:10:00,
2013-02-12 13:15:00,46.3,27.2,30.16,WSW,239,6.9,6.9,47,0.00,CLR,,0.00,WeatherDisplay:10.37,2013-02-12 18:15:00,
2013-02-12 13:20:00,46.5,27.8,30.16,WSW,242,5.0,5.0,48,0.00,CLR,,0.00,WeatherDisplay:10.37,2013-02-12 18:20:00,
2013-02-12 13:25:00,46.9,27.2,30.15,WSW,243,1.0,7.0,46,0.00,CLR,,0.00,WeatherDisplay:10.37,2013-02-12 18:25:00,
2013-02-12 13:30:00,46.7,27.0,30.15,WSW,241,3.5,3.5,46,0.00,CLR,,0.00,WeatherDisplay:10.37,2013-02-12 18:30:00,
2013-02-12 13:35:00,47.3,27.5,30.14,WSW,241,4.6,4.6,46,0.00,CLR,,0.00,WeatherDisplay:10.37,2013-02-12 18:35:00,
2013-02-12 13:40:00,47.4,27.1,30.13,WSW,239,4.0,4.0,45,0.00,CLR,,0.00,WeatherDisplay:10.37,2013-02-12 18:40:00,
2013-02-12 13:45:00,46.9,26.6,30.13,WSW,239,8.0,8.0,45,0.00,CLR,,0.00,WeatherDisplay:10.37,2013-02-12 18:45:00,
2013-02-12 13:50:00,47.0,26.2,30.13,SW,234,6.0,6.0,44,0.00,CLR,,0.00,WeatherDisplay:10.37,2013-02-12 18:50:00,
2013-02-12 13:55:00,47.4,26.6,30.13,SW,230,4.6,4.6,44,0.00,CLR,,0.00,WeatherDisplay:10.37,2013-02-12 18:55:00,
2013-02-12 14:00:00,47.9,27.6,30.13,WSW,249,6.9,6.9,45,0.00,CLR,,0.00,WeatherDisplay:10.37,2013-02-12 19:00:00,
2013-02-12 14:05:00,47.7,26.3,30.13,WSW,245,4.6,4.6,43,0.00,CLR,,0.00,WeatherDisplay:10.37,2013-02-12 19:05:00,
2013-02-12 14:10:00,47.4,26.0,30.13,WSW,246,4.0,4.0,43,0.00,CLR,,0.00,WeatherDisplay:10.37,2013-02-12 19:10:00,
2013-02-12 14:15:00,47.4,26.0,30.12,WSW,240,2.3,2.3,43,0.00,CLR,,0.00,WeatherDisplay:10.37,2013-02-12 19:15:00,
2013-02-12 14:20:00,47.6,26.7,30.12,WSW,243,6.0,6.0,44,0.00,CLR,,0.00,WeatherDisplay:10.37,2013-02-12 19:20:00,
2013-02-12 14:25:00,47.9,27.0,30.11,WSW,244,9.2,9.2,44,0.00,CLR,,0.00,WeatherDisplay:10.37,2013-02-12 19:25:00,
2013-02-12 14:30:00,47.8,26.9,30.11,SW,236,5.0,5.0,44,0.00,CLR,,0.00,WeatherDisplay:10.37,2013-02-12 19:30:00,
2013-02-12 14:35:00,48.2,27.3,30.11,SW,228,1.1,1.1,44,0.00,CLR,,0.00,WeatherDisplay:10.37,2013-02-12 19:35:00,
2013-02-12 14:40:00,48.5,28.1,30.11,SW,229,3.5,3.5,45,0.00,CLR,,0.00,WeatherDisplay:10.37,2013-02-12 19:40:00,
2013-02-12 14:45:00,48.5,27.0,30.11,SW,233,3.5,3.5,43,0.00,CLR,,0.00,WeatherDisplay:10.37,2013-02-12 19:45:00,
2013-02-12 14:51:00,48.1,26.6,30.10,SW,233,3.5,3.5,43,0.00,CLR,,0.00,WeatherDisplay:10.37,2013-02-12 19:51:00,
2013-02-12 14:56:00,48.1,27.2,30.11,West,264,3.5,3.5,44,0.00,CLR,,0.00,WeatherDisplay:10.37,2013-02-12 19:56:00,
2013-02-12 15:01:00,48.2,27.3,30.11,West,260,4.6,4.6,44,0.00,CLR,,0.00,WeatherDisplay:10.37,2013-02-12 20:01:00,
2013-02-12 15:06:00,48.0,27.1,30.11,West,261,3.5,3.5,44,0.00,CLR,,0.00,WeatherDisplay:10.37,2013-02-12 20:06:00,
2013-02-12 15:11:00,47.9,27.6,30.10,West,264,3.5,3.5,45,0.00,CLR,,0.00,WeatherDisplay:10.37,2013-02-12 20:11:00,
2013-02-12 15:16:00,47.9,27.6,30.11,West,265,2.3,2.3,45,0.00,CLR,,0.00,WeatherDisplay:10.37,2013-02-12 20:16:00,
2013-02-12 15:21:00,47.9,27.6,30.10,West,264,2.3,2.3,45,0.00,CLR,,0.00,WeatherDisplay:10.37,2013-02-12 20:21:00,
2013-02-12 15:26:00,48.2,28.4,30.10,West,265,2.0,2.0,46,0.00,CLR,,0.00,WeatherDisplay:10.37,2013-02-12 20:26:00,
2013-02-12 15:31:00,48.3,27.4,30.10,WSW,255,8.1,8.1,44,0.00,CLR,,0.00,WeatherDisplay:10.37,2013-02-12 20:31:00,
2013-02-12 15:36:00,47.9,27.0,30.10,WSW,255,4.0,4.0,44,0.00,CLR,,0.00,WeatherDisplay:10.37,2013-02-12 20:36:00,
2013-02-12 15:41:00,47.9,27.0,30.10,WSW,255,5.0,5.0,44,0.00,CLR,,0.00,WeatherDisplay:10.37,2013-02-12 20:41:00,
2013-02-12 15:46:00,47.7,26.8,30.10,WSW,250,4.0,4.0,44,0.00,CLR,,0.00,WeatherDisplay:10.37,2013-02-12 20:46:00,
2013-02-12 15:51:00,47.8,26.9,30.09,WSW,247,6.0,6.0,44,0.00,CLR,,0.00,WeatherDisplay:10.37,2013-02-12 20:51:00,
2013-02-12 15:56:00,47.8,26.9,30.10,WSW,247,3.0,3.0,44,0.00,CLR,,0.00,WeatherDisplay:10.37,2013-02-12 20:56:00,
2013-02-12 16:01:00,47.9,26.5,30.10,WSW,242,4.0,4.0,43,0.00,CLR,,0.00,WeatherDisplay:10.37,2013-02-12 21:01:00,
2013-02-12 16:06:00,47.9,26.5,30.09,WSW,243,5.0,5.0,43,0.00,CLR,,0.00,WeatherDisplay:10.37,2013-02-12 21:06:00,
2013-02-12 16:11:00,47.9,26.5,30.09,WSW,241,3.0,3.0,43,0.00,CLR,,0.00,WeatherDisplay:10.37,2013-02-12 21:11:00,
2013-02-12 16:16:00,47.8,26.4,30.08,SW,231,8.1,8.1,43,0.00,CLR,,0.00,WeatherDisplay:10.37,2013-02-12 21:16:00,
2013-02-12 16:21:00,47.5,26.6,30.08,SW,231,3.5,3.5,44,0.00,CLR,,0.00,WeatherDisplay:10.37,2013-02-12 21:21:00,
2013-02-12 16:26:00,47.6,27.3,30.08,SW,230,4.0,4.0,45,0.00,CLR,,0.00,WeatherDisplay:10.37,2013-02-12 21:26:00,
2013-02-12 16:31:00,47.7,27.4,30.08,SW,231,4.0,4.0,45,0.00,CLR,,0.00,WeatherDisplay:10.37,2013-02-12 21:31:00,
2013-02-12 16:36:00,47.5,27.2,30.07,SW,230,3.5,3.5,45,0.00,CLR,,0.00,WeatherDisplay:10.37,2013-02-12 21:36:00,
2013-02-12 16:41:00,47.4,27.6,30.07,SW,229,1.1,0.0,46,0.00,CLR,,0.00,WeatherDisplay:10.37,2013-02-12 21:41:00,
2013-02-12 16:46:00,47.4,27.6,30.06,SW,215,2.3,2.3,46,0.00,CLR,,0.00,WeatherDisplay:10.37,2013-02-12 21:46:00,
2013-02-12 16:51:00,47.4,27.1,30.05,SW,216,3.5,3.5,45,0.00,CLR,,0.00,WeatherDisplay:10.37,2013-02-12 21:51:00,
2013-02-12 16:56:00,47.3,27.5,30.05,SW,216,2.0,2.0,46,0.00,CLR,,0.00,WeatherDisplay:10.37,2013-02-12 21:56:00,
2013-02-12 17:01:00,47.3,27.5,30.05,SW,214,2.3,2.3,46,0.00,CLR,,0.00,WeatherDisplay:10.37,2013-02-12 22:01:00,
2013-02-12 17:06:00,47.3,27.5,30.04,SSW,212,3.0,3.0,46,0.00,CLR,,0.00,WeatherDisplay:10.37,2013-02-12 22:06:00,
2013-02-12 17:11:00,47.2,27.5,30.04,SSW,212,4.0,4.0,46,0.00,CLR,,0.00,WeatherDisplay:10.37,2013-02-12 22:11:00,
2013-02-12 17:17:00,47.2,27.5,30.03,SSW,212,2.3,2.3,46,0.00,CLR,,0.00,WeatherDisplay:10.37,2013-02-12 22:17:00,
2013-02-12 17:22:00,47.2,27.5,30.02,SSW,212,2.3,2.3,46,0.00,CLR,,0.00,WeatherDisplay:10.37,2013-02-12 22:22:00,
2013-02-12 17:27:00,47.2,27.5,30.02,SSW,212,1.1,0.0,46,0.00,CLR,,0.00,WeatherDisplay:10.37,2013-02-12 22:27:00,
2013-02-12 17:32:00,47.2,26.9,30.01,SSW,212,2.3,2.3,45,0.00,CLR,,0.00,WeatherDisplay:10.37,2013-02-12 22:32:00,
2013-02-12 17:37:00,47.3,27.5,30.00,SSW,212,0.0,0.0,46,0.00,CLR,,0.00,WeatherDisplay:10.37,2013-02-12 22:37:00,
2013-02-12 17:42:00,47.2,26.9,30.00,SSW,212,0.0,0.0,45,0.00,CLR,,0.00,WeatherDisplay:10.37,2013-02-12 22:42:00,
2013-02-12 17:47:00,46.9,26.6,30.00,SSW,212,0.0,0.0,45,0.00,CLR,,0.00,WeatherDisplay:10.37,2013-02-12 22:47:00,
2013-02-12 17:52:00,46.6,26.9,30.00,SSW,212,0.0,0.0,46,0.00,CLR,,0.00,WeatherDisplay:10.37,2013-02-12 22:52:00,
2013-02-12 17:57:00,46.3,26.6,30.01,SSW,212,0.0,0.0,46,0.00,CLR,,0.00,WeatherDisplay:10.37,2013-02-12 22:57:00,
2013-02-12 18:03:00,45.9,26.3,30.01,SSW,212,0.0,0.0,46,0.00,CLR,,0.00,WeatherDisplay:10.37,2013-02-12 23:03:00,
2013-02-12 18:08:00,45.8,26.7,30.01,SSW,212,0.0,0.0,47,0.00,CLR,,0.00,WeatherDisplay:10.37,2013-02-12 23:08:00,
2013-02-12 18:13:00,45.6,26.5,30.01,SSW,212,0.0,0.0,47,0.00,CLR,,0.00,WeatherDisplay:10.37,2013-02-12 23:13:00,
2013-02-12 18:18:00,45.3,26.7,30.02,SSW,212,0.0,0.0,48,0.00,CLR,,0.00,WeatherDisplay:10.37,2013-02-12 23:18:00,
2013-02-12 18:23:00,45.2,26.7,30.02,SSW,212,0.0,0.0,48,0.00,CLR,,0.00,WeatherDisplay:10.37,2013-02-12 23:23:00,
2013-02-12 18:28:00,45.0,27.0,30.02,SSW,212,0.0,0.0,49,0.00,CLR,,0.00,WeatherDisplay:10.37,2013-02-12 23:28:00,
2013-02-12 18:33:00,44.8,27.3,30.02,SSW,212,0.0,0.0,50,0.00,CLR,,0.00,WeatherDisplay:10.37,2013-02-12 23:33:00,
2013-02-12 18:38:00,44.4,26.9,30.02,SSW,212,0.0,0.0,50,0.00,CLR,,0.00,WeatherDisplay:10.37,2013-02-12 23:38:00,
2013-02-12 18:43:00,44.1,26.6,30.03,SSW,212,0.0,0.0,50,0.00,CLR,,0.00,WeatherDisplay:10.37,2013-02-12 23:43:00,
2013-02-12 18:48:00,43.8,26.8,30.02,SSW,212,0.0,0.0,51,0.00,CLR,,0.00,WeatherDisplay:10.37,2013-02-12 23:48:00,
2013-02-12 18:53:00,43.5,27.0,30.02,SSW,212,0.0,0.0,52,0.00,CLR,,0.00,WeatherDisplay:10.37,2013-02-12 23:53:00,
2013-02-12 18:58:00,43.2,26.3,30.01,SSW,212,0.0,0.0,51,0.00,CLR,,0.00,WeatherDisplay:10.37,2013-02-12 23:58:00,
2013-02-12 19:03:00,43.1,26.7,30.02,SSW,212,0.0,0.0,52,0.00,CLR,,0.00,WeatherDisplay:10.37,2013-02-13 00:03:00,
2013-02-12 19:08:00,42.9,26.5,30.02,SSW,212,0.0,0.0,52,0.00,CLR,,0.00,WeatherDisplay:10.37,2013-02-13 00:08:00,
2013-02-12 19:13:00,42.6,26.6,30.02,SSW,212,0.0,0.0,53,0.00,CLR,,0.00,WeatherDisplay:10.37,2013-02-13 00:13:00,
2013-02-12 19:18:00,42.5,26.6,30.02,SSW,212,0.0,0.0,53,0.00,CLR,,0.00,WeatherDisplay:10.37,2013-02-13 00:18:00,
2013-02-12 19:23:00,42.6,27.1,30.03,SSW,212,0.0,0.0,54,0.00,CLR,,0.00,WeatherDisplay:10.37,2013-02-13 00:23:00,
2013-02-12 19:28:00,42.6,26.6,30.02,SSW,212,0.0,0.0,53,0.00,CLR,,0.00,WeatherDisplay:10.37,2013-02-13 00:28:00,
2013-02-12 19:33:00,42.5,26.6,30.02,SSW,212,0.0,0.0,53,0.00,CLR,,0.00,WeatherDisplay:10.37,2013-02-13 00:33:00,
2013-02-12 19:38:00,42.4,26.5,30.02,SSW,212,0.0,0.0,53,0.00,CLR,,0.00,WeatherDisplay:10.37,2013-02-13 00:38:00,
2013-02-12 19:43:00,42.4,26.9,30.02,SSW,212,0.0,0.0,54,0.00,CLR,,0.00,WeatherDisplay:10.37,2013-02-13 00:43:00,
2013-02-12 19:48:00,42.4,26.9,30.01,SSW,212,0.0,0.0,54,0.00,CLR,,0.00,WeatherDisplay:10.37,2013-02-13 00:48:00,
2013-02-12 19:53:00,42.4,26.9,30.01,SSW,212,0.0,0.0,54,0.00,CLR,,0.00,WeatherDisplay:10.37,2013-02-13 00:53:00,
2013-02-12 19:58:00,42.3,27.3,30.02,SSW,212,0.0,0.0,55,0.00,CLR,,0.00,WeatherDisplay:10.37,2013-02-13 00:58:00,
2013-02-12 20:03:00,42.4,27.4,30.01,SSW,212,0.0,0.0,55,0.00,CLR,,0.00,WeatherDisplay:10.37,2013-02-13 01:03:00,
2013-02-12 20:08:00,42.1,27.1,30.02,SSW,212,0.0,0.0,55,0.00,CLR,,0.00,WeatherDisplay:10.37,2013-02-13 01:08:00,
2013-02-12 20:13:00,41.9,26.9,30.01,SSW,212,0.0,0.0,55,0.00,CLR,,0.00,WeatherDisplay:10.37,2013-02-13 01:13:00,
2013-02-12 20:18:00,41.7,26.7,30.02,SSW,212,0.0,0.0,55,0.00,CLR,,0.00,WeatherDisplay:10.37,2013-02-13 01:18:00,
2013-02-12 20:23:00,41.5,27.0,30.02,SSW,212,0.0,0.0,56,0.00,CLR,,0.00,WeatherDisplay:10.37,2013-02-13 01:23:00,
2013-02-12 20:28:00,41.2,26.7,30.02,SSW,212,0.0,0.0,56,0.00,CLR,,0.00,WeatherDisplay:10.37,2013-02-13 01:28:00,
2013-02-12 20:33:00,41.0,26.5,30.02,SSW,212,0.0,0.0,56,0.00,CLR,,0.00,WeatherDisplay:10.37,2013-02-13 01:33:00,
2013-02-12 20:38:00,40.8,26.7,30.03,SSW,212,0.0,0.0,57,0.00,CLR,,0.00,WeatherDisplay:10.37,2013-02-13 01:38:00,
2013-02-12 20:43:00,40.7,27.1,30.02,SSW,212,0.0,0.0,58,0.00,CLR,,0.00,WeatherDisplay:10.37,2013-02-13 01:43:00,
2013-02-12 20:48:00,40.6,27.0,30.01,SSW,212,0.0,0.0,58,0.00,CLR,,0.00,WeatherDisplay:10.37,2013-02-13 01:48:00,
2013-02-12 20:53:00,40.8,26.7,30.00,SSW,212,0.0,0.0,57,0.00,CLR,,0.00,WeatherDisplay:10.37,2013-02-13 01:53:00,
2013-02-12 20:58:00,40.9,26.8,30.00,SSW,212,0.0,0.0,57,0.00,CLR,,0.00,WeatherDisplay:10.37,2013-02-13 01:58:00,
2013-02-12 21:03:00,40.6,27.0,30.01,SSW,212,0.0,0.0,58,0.00,CLR,,0.00,WeatherDisplay:10.37,2013-02-13 02:03:00,
2013-02-12 21:08:00,40.2,27.0,30.00,SSW,212,0.0,0.0,59,0.00,CLR,,0.00,WeatherDisplay:10.37,2013-02-13 02:08:00,
2013-02-12 21:13:00,39.9,26.7,30.00,SSW,212,0.0,0.0,59,0.00,CLR,,0.00,WeatherDisplay:10.37,2013-02-13 02:13:00,
2013-02-12 21:18:00,39.6,26.8,30.00,SSW,212,0.0,0.0,60,0.00,CLR,,0.00,WeatherDisplay:10.37,2013-02-13 02:18:00,
2013-02-12 21:23:00,39.2,26.1,29.99,SSW,212,0.0,0.0,59,0.00,CLR,,0.00,WeatherDisplay:10.37,2013-02-13 02:23:00,
2013-02-12 21:28:00,38.9,25.8,29.99,SSW,212,0.0,0.0,59,0.00,CLR,,0.00,WeatherDisplay:10.37,2013-02-13 02:28:00,
2013-02-12 21:33:00,38.8,26.1,29.99,SSW,212,0.0,0.0,60,0.00,CLR,,0.00,WeatherDisplay:10.37,2013-02-13 02:33:00,
2013-02-12 21:38:00,38.7,26.4,29.98,SSW,212,0.0,0.0,61,0.00,CLR,,0.00,WeatherDisplay:10.37,2013-02-13 02:38:00,
2013-02-12 21:43:00,39.1,26.4,29.98,SSW,212,0.0,0.0,60,0.00,CLR,,0.00,WeatherDisplay:10.37,2013-02-13 02:43:00,
2013-02-12 21:48:00,39.2,26.5,29.98,SSW,212,0.0,0.0,60,0.00,CLR,,0.00,WeatherDisplay:10.37,2013-02-13 02:48:00,
2013-02-12 21:53:00,39.1,26.8,29.98,SSW,212,0.0,0.0,61,0.00,CLR,,0.00,WeatherDisplay:10.37,2013-02-13 02:53:00,
2013-02-12 21:58:00,38.8,26.5,29.98,SSW,212,0.0,0.0,61,0.00,CLR,,0.00,WeatherDisplay:10.37,2013-02-13 02:58:00,
2013-02-12 22:03:00,38.4,26.1,29.98,SSW,212,0.0,0.0,61,0.00,CLR,,0.00,WeatherDisplay:10.37,2013-02-13 03:03:00,
2013-02-12 22:08:00,38.1,26.2,29.98,SSW,212,0.0,0.0,62,0.00,CLR,,0.00,WeatherDisplay:10.37,2013-02-13 03:08:00,
2013-02-12 22:13:00,37.8,25.9,29.98,SSW,212,0.0,0.0,62,0.00,CLR,,0.00,WeatherDisplay:10.37,2013-02-13 03:13:00,
2013-02-12 22:18:00,37.5,26.0,29.98,SSW,212,0.0,0.0,63,0.00,CLR,,0.00,WeatherDisplay:10.37,2013-02-13 03:18:00,
2013-02-12 22:23:00,37.6,26.1,29.98,SSW,212,0.0,0.0,63,0.00,CLR,,0.00,WeatherDisplay:10.37,2013-02-13 03:23:00,
2013-02-12 22:28:00,37.5,26.0,29.98,SSW,212,0.0,0.0,63,0.00,CLR,,0.00,WeatherDisplay:10.37,2013-02-13 03:28:00,
2013-02-12 22:33:00,37.5,26.0,29.98,SSW,212,0.0,0.0,63,0.00,CLR,,0.00,WeatherDisplay:10.37,2013-02-13 03:33:00,
2013-02-12 22:38:00,37.5,26.0,29.97,SSW,212,0.0,0.0,63,0.00,CLR,,0.00,WeatherDisplay:10.37,2013-02-13 03:38:00,
2013-02-12 22:43:00,37.4,26.3,29.97,SSW,212,0.0,0.0,64,0.00,CLR,,0.00,WeatherDisplay:10.37,2013-02-13 03:43:00,
2013-02-12 22:48:00,37.3,26.2,29.98,SSW,212,0.0,0.0,64,0.00,CLR,,0.00,WeatherDisplay:10.37,2013-02-13 03:48:00,
2013-02-12 22:53:00,37.2,26.1,29.97,SSW,212,0.0,0.0,64,0.00,CLR,,0.00,WeatherDisplay:10.37,2013-02-13 03:53:00,
2013-02-12 22:58:00,37.1,26.0,29.97,SSW,212,0.0,0.0,64,0.00,CLR,,0.00,WeatherDisplay:10.37,2013-02-13 03:58:00,
2013-02-12 23:03:00,37.2,26.1,29.97,SSW,212,0.0,0.0,64,0.00,CLR,,0.00,WeatherDisplay:10.37,2013-02-13 04:03:00,
2013-02-12 23:08:00,37.0,25.9,29.97,SSW,212,0.0,0.0,64,0.00,CLR,,0.00,WeatherDisplay:10.37,2013-02-13 04:08:00,
2013-02-12 23:13:00,36.8,26.1,29.95,SSW,212,0.0,0.0,65,0.00,CLR,,0.00,WeatherDisplay:10.37,2013-02-13 04:13:00,
2013-02-12 23:18:00,36.6,26.3,29.95,SSW,212,0.0,0.0,66,0.00,CLR,,0.00,WeatherDisplay:10.37,2013-02-13 04:18:00,
2013-02-12 23:23:00,36.2,25.9,29.95,SSW,212,0.0,0.0,66,0.00,CLR,,0.00,WeatherDisplay:10.37,2013-02-13 04:23:00,
2013-02-12 23:28:00,36.0,26.1,29.94,SSW,212,0.0,0.0,67,0.00,CLR,,0.00,WeatherDisplay:10.37,2013-02-13 04:28:00,
2013-02-12 23:34:00,35.8,25.9,29.94,SSW,212,0.0,0.0,67,0.00,CLR,,0.00,WeatherDisplay:10.37,2013-02-13 04:34:00,
2013-02-12 23:39:00,35.6,26.1,29.94,SSW,212,0.0,0.0,68,0.00,CLR,,0.00,WeatherDisplay:10.37,2013-02-13 04:39:00,
2013-02-12 23:44:00,35.5,26.0,29.94,SSW,212,0.0,0.0,68,0.00,CLR,,0.00,WeatherDisplay:10.37,2013-02-13 04:44:00,
2013-02-12 23:49:00,35.4,25.9,29.94,SSW,212,0.0,0.0,68,0.00,CLR,,0.00,WeatherDisplay:10.37,2013-02-13 04:49:00,
2013-02-12 23:54:00,35.2,26.0,29.94,SSW,212,0.0,0.0,69,0.00,CLR,,0.00,WeatherDisplay:10.37,2013-02-13 04:54:00,
2013-02-12 23:59:00,35.2,26.0,29.94,SSW,212,0.0,0.0,69,0.00,CLR,,0.00,WeatherDisplay:10.37,2013-02-13 04:59:00,